Other Surface Observations
Issued by NWS Great Falls, MT

Home | Current Version | Previous Version | Text Only | Print | Product List | Glossary On
Versions: 1 2 3 4 5 6 7 8 9 10 11 12 13 14 15 16 17 18 19 20 21 22 23 24 25 26 27 28 29 30 31 32 33 34 35 36 37 38 39 40 41 42 43 44 45 46 47 48 49 50
905
SXUS55 KTFX 201707
OSOTFX

AREA AWOS OBSERVATIONS
NATIONAL WEATHER SERVICE GREAT FALLS MT
1106 AM MDT Sun Aug 20 2017

METAR K6S8 201655Z AUTO 01000KT 25SM 21/03 A3005 RMK A01 T02110033
METAR K7S0 201555Z AUTO  40SM 18/06 A3014 RMK A01 T01830055
METAR K7S1 201655Z AUTO 14000KT 25SM 17/02 A3014 RMK A01 T01720016
METAR K9S2 201655Z AUTO 15007KT 40SM 21/M01 A3006 RMK A01 T02051011
METAR K9S5 201655Z AUTO 35001KT 25SM 21/04 A3011 RMK A01 T02050038
METAR KRPX 201555Z AUTO 35003KT 40SM 19/01 A2999 RMK A01 T01940005
METAR KS34 201655Z AUTO 01000KT 25SM 18/05 A3010 RMK A01 T01830050
METAR KTHM 201555Z AUTO 11000KT 40SM 15/05 A3014 RMK A01 T01500050



USA.gov is the U.S. government's official web portal to all federal, state and local government web resources and services.